createdAt,value
2023-04-16T00:01:36.293Z,94.10
2023-04-16T00:04:03.791Z,94.10
2023-04-16T00:06:31.831Z,94.30
2023-04-16T00:08:58.755Z,94.30
2023-04-16T00:11:25.576Z,94.40
2023-04-16T00:13:52.365Z,94.30
2023-04-16T00:16:19.196Z,94.40
2023-04-16T00:18:46.519Z,94.50
2023-04-16T00:21:13.259Z,94.50
2023-04-16T00:23:40.082Z,94.50
2023-04-16T00:26:06.846Z,94.40
2023-04-16T00:28:33.657Z,94.60
2023-04-16T00:31:01.771Z,94.70
2023-04-16T00:33:30.112Z,94.90
2023-04-16T00:35:56.880Z,94.80
2023-04-16T00:38:23.858Z,94.70
2023-04-16T00:40:50.635Z,94.70
2023-04-16T00:43:23.031Z,94.60
2023-04-16T00:45:50.320Z,94.60
2023-04-16T00:48:17.684Z,95.00
2023-04-16T00:50:44.505Z,95.10
2023-04-16T00:53:11.476Z,95.30
2023-04-16T00:55:39.243Z,95.00
2023-04-16T00:58:06.353Z,94.80
2023-04-16T01:00:33.256Z,95.00
2023-04-16T01:03:00.434Z,95.20
2023-04-16T01:05:27.414Z,95.00
2023-04-16T01:07:54.173Z,95.10
2023-04-16T01:10:21.079Z,95.20
2023-04-16T01:12:47.800Z,95.00
2023-04-16T01:15:17.870Z,95.00
2023-04-16T01:17:48.176Z,95.10
2023-04-16T01:20:15.463Z,95.00
2023-04-16T01:22:42.633Z,95.30
2023-04-16T01:25:13.476Z,95.30
2023-04-16T01:27:40.412Z,95.10
2023-04-16T01:30:07.837Z,95.20
2023-04-16T01:32:34.632Z,95.10
2023-04-16T01:35:01.590Z,95.20
2023-04-16T01:37:28.383Z,95.60
2023-04-16T01:39:55.609Z,95.30
2023-04-16T01:42:22.401Z,95.40
2023-04-16T01:44:49.182Z,95.40
2023-04-16T01:47:16.066Z,95.70
2023-04-16T01:49:45.636Z,95.40
2023-04-16T01:52:12.445Z,95.50
2023-04-16T01:54:39.209Z,95.30
2023-04-16T01:57:05.990Z,95.50
2023-04-16T01:59:32.742Z,95.40
2023-04-16T02:02:11.580Z,95.90
2023-04-16T02:04:40.009Z,95.70
2023-04-16T02:07:07.819Z,95.70
2023-04-16T02:09:38.998Z,95.60
2023-04-16T02:12:06.574Z,95.50
2023-04-16T02:14:33.965Z,95.50
2023-04-16T02:17:01.147Z,95.50
2023-04-16T02:19:28.742Z,95.70
2023-04-16T02:21:55.509Z,95.40
2023-04-16T02:24:22.317Z,95.40
2023-04-16T02:26:49.111Z,95.60
2023-04-16T02:29:16.644Z,95.50
2023-04-16T02:31:44.349Z,95.70
2023-04-16T02:34:11.269Z,95.60
2023-04-16T02:36:38.534Z,95.70
2023-04-16T02:39:05.314Z,95.70
2023-04-16T02:41:32.134Z,95.50
2023-04-16T02:43:58.999Z,95.70
2023-04-16T02:46:25.944Z,95.70
2023-04-16T02:48:53.250Z,95.80
2023-04-16T02:51:19.986Z,95.90
2023-04-16T02:53:46.795Z,95.80
2023-04-16T02:56:13.637Z,96.10
2023-04-16T02:58:40.671Z,96.00
2023-04-16T03:01:07.579Z,96.00
2023-04-16T03:03:34.390Z,96.00
2023-04-16T03:06:01.156Z,95.80
2023-04-16T03:08:30.674Z,95.90
2023-04-16T03:10:57.510Z,95.80
2023-04-16T03:13:24.261Z,96.00
2023-04-16T03:15:51.130Z,96.10
2023-04-16T03:18:17.991Z,95.90
2023-04-16T03:20:44.708Z,96.00
2023-04-16T03:23:11.550Z,96.00
2023-04-16T03:25:40.507Z,96.10
2023-04-16T03:28:07.346Z,96.00
2023-04-16T03:30:34.175Z,96.00
2023-04-16T03:33:01.294Z,96.30
2023-04-16T03:35:28.115Z,96.00
2023-04-16T03:37:54.903Z,96.30
2023-04-16T03:40:21.738Z,96.10
2023-04-16T03:42:48.507Z,96.20
2023-04-16T03:45:15.523Z,96.10
2023-04-16T03:47:42.290Z,96.30
2023-04-16T03:50:09.556Z,96.40
2023-04-16T03:52:36.740Z,96.20
2023-04-16T03:55:04.112Z,96.30
2023-04-16T03:57:30.873Z,96.40
2023-04-16T03:59:57.733Z,96.30
2023-04-16T04:02:24.577Z,96.50
2023-04-16T04:04:51.752Z,96.50
2023-04-16T04:07:18.630Z,96.50
2023-04-16T04:09:53.333Z,96.40
2023-04-16T04:12:20.121Z,96.40
2023-04-16T04:14:46.915Z,96.30
2023-04-16T04:17:13.777Z,96.50
2023-04-16T04:19:47.125Z,96.20
2023-04-16T04:22:17.744Z,96.50
2023-04-16T04:24:44.520Z,96.40
2023-04-16T04:27:11.281Z,96.40
2023-04-16T04:29:38.006Z,96.40
2023-04-16T04:32:05.139Z,96.50
2023-04-16T04:34:32.024Z,96.50
2023-04-16T04:36:59.521Z,96.50
2023-04-16T04:39:26.236Z,96.40
2023-04-16T04:41:53.013Z,96.50
2023-04-16T04:44:19.736Z,96.50
2023-04-16T04:46:46.544Z,96.40
2023-04-16T04:49:13.474Z,96.80
2023-04-16T04:51:40.548Z,96.60
2023-04-16T04:54:07.369Z,96.70
2023-04-16T04:56:36.661Z,97.00
2023-04-16T04:59:03.474Z,96.70
2023-04-16T05:01:30.450Z,96.70
2023-04-16T05:03:59.976Z,96.90
2023-04-16T05:06:29.086Z,97.00
2023-04-16T05:08:56.408Z,97.20
2023-04-16T05:11:23.287Z,97.20
2023-04-16T05:13:50.182Z,96.90
2023-04-16T05:16:17.099Z,96.80
2023-04-16T05:18:45.146Z,96.80
2023-04-16T05:21:11.942Z,96.60
2023-04-16T05:23:38.828Z,96.80
2023-04-16T05:26:05.587Z,96.80
2023-04-16T05:28:32.346Z,96.70
2023-04-16T05:30:59.187Z,96.70
2023-04-16T05:33:25.973Z,96.50
2023-04-16T05:35:52.895Z,96.40
2023-04-16T05:38:19.618Z,96.50
2023-04-16T05:40:46.423Z,96.40
2023-04-16T05:43:13.217Z,96.70
2023-04-16T05:45:41.415Z,96.30
2023-04-16T05:48:31.142Z,96.30
2023-04-16T05:50:57.981Z,96.30
2023-04-16T05:53:24.775Z,96.30
2023-04-16T05:55:51.630Z,96.40
2023-04-16T05:58:18.435Z,96.60
2023-04-16T06:00:45.428Z,96.50
2023-04-16T06:03:12.431Z,96.70
2023-04-16T06:05:39.480Z,96.60
2023-04-16T06:08:06.370Z,96.40
2023-04-16T06:10:33.171Z,95.90
2023-04-16T06:13:00.000Z,95.70
2023-04-16T06:15:29.272Z,95.60
2023-04-16T06:17:56.781Z,95.10
2023-04-16T06:20:24.565Z,95.00
2023-04-16T06:22:51.413Z,95.30
2023-04-16T06:25:18.338Z,95.20
2023-04-16T06:27:45.273Z,94.90
2023-04-16T06:30:13.564Z,95.00
2023-04-16T06:32:40.583Z,94.50
2023-04-16T06:35:07.767Z,94.60
2023-04-16T06:37:34.680Z,94.80
2023-04-16T06:40:01.811Z,94.50
2023-04-16T06:42:28.593Z,94.20
2023-04-16T06:44:55.363Z,94.40
2023-04-16T06:47:22.186Z,94.40
2023-04-16T06:49:49.008Z,93.90
2023-04-16T06:52:15.972Z,94.10
2023-04-16T06:54:42.781Z,94.40
2023-04-16T06:57:09.677Z,94.20
2023-04-16T06:59:36.410Z,94.30
2023-04-16T07:02:03.408Z,93.90
2023-04-16T07:04:30.507Z,92.40
2023-04-16T07:06:57.277Z,93.30
2023-04-16T07:09:24.138Z,92.60
2023-04-16T07:11:51.065Z,92.50
2023-04-16T07:14:17.922Z,92.60
2023-04-16T07:16:44.775Z,92.10
2023-04-16T07:19:11.960Z,91.80
2023-04-16T07:21:39.462Z,91.20
2023-04-16T07:24:06.331Z,91.20
2023-04-16T07:26:33.150Z,91.00
2023-04-16T07:28:59.908Z,90.60
2023-04-16T07:31:27.345Z,90.20
2023-04-16T07:33:54.184Z,90.60
2023-04-16T07:36:21.215Z,90.10
2023-04-16T07:38:48.255Z,90.70
2023-04-16T07:41:15.382Z,90.00
2023-04-16T07:43:44.639Z,91.00
2023-04-16T07:49:55.330Z,89.50
2023-04-16T07:52:22.077Z,88.70
2023-04-16T07:54:48.868Z,88.90
2023-04-16T07:57:16.448Z,88.20
2023-04-16T07:59:43.281Z,88.70
2023-04-16T08:02:14.765Z,88.30
2023-04-16T08:04:45.237Z,88.20
2023-04-16T08:07:12.305Z,86.50
2023-04-16T08:09:56.831Z,87.10
2023-04-16T08:12:23.836Z,86.80
2023-04-16T08:14:50.750Z,86.10
2023-04-16T08:17:18.016Z,85.80
2023-04-16T08:19:45.241Z,85.60
2023-04-16T08:22:15.457Z,84.00
2023-04-16T08:24:42.577Z,85.60
2023-04-16T08:27:18.621Z,85.00
2023-04-16T08:29:46.493Z,83.70
2023-04-16T08:32:13.532Z,83.00
2023-04-16T08:34:40.507Z,82.70
2023-04-16T08:37:07.339Z,83.70
2023-04-16T08:39:35.199Z,83.20
2023-04-16T08:42:06.214Z,82.00
2023-04-16T08:44:37.433Z,81.70
2023-04-16T08:47:08.465Z,81.20
2023-04-16T08:53:06.949Z,80.40
2023-04-16T08:55:39.196Z,81.00
2023-04-16T08:58:13.750Z,78.90
2023-04-16T09:00:41.300Z,79.80
2023-04-16T09:03:09.377Z,79.80
2023-04-16T09:05:37.380Z,78.40
2023-04-16T09:08:06.387Z,78.60
2023-04-16T09:11:10.147Z,78.70
2023-04-16T09:13:38.053Z,78.30
2023-04-16T09:16:07.474Z,78.90
2023-04-16T09:18:34.305Z,79.20
2023-04-16T09:21:03.040Z,80.00
2023-04-16T09:23:29.992Z,78.70
2023-04-16T09:25:59.176Z,78.40
2023-04-16T09:28:47.089Z,78.40
2023-04-16T09:31:16.832Z,76.40
2023-04-16T09:34:00.333Z,75.80
2023-04-16T09:36:27.820Z,75.90
2023-04-16T09:38:57.612Z,74.50
2023-04-16T09:41:27.278Z,74.40
2023-04-16T09:43:57.800Z,74.80
2023-04-16T09:46:31.887Z,72.90
2023-04-16T09:48:58.837Z,73.30
2023-04-16T09:51:26.860Z,73.40
2023-04-16T09:53:54.828Z,74.90
2023-04-16T09:56:26.000Z,75.10
2023-04-16T09:58:58.486Z,76.60
2023-04-16T10:01:25.576Z,74.90
2023-04-16T10:03:54.641Z,75.30
2023-04-16T10:06:23.675Z,75.90
2023-04-16T10:08:52.650Z,75.50
2023-04-16T10:11:20.844Z,76.40
2023-04-16T10:13:47.720Z,75.30
2023-04-16T10:16:14.806Z,74.80
2023-04-16T10:18:43.495Z,74.10
2023-04-16T10:21:15.315Z,74.00
2023-04-16T10:23:43.538Z,74.10
2023-04-16T10:26:10.647Z,75.10
2023-04-16T10:28:37.549Z,75.50
2023-04-16T10:31:08.122Z,75.20
2023-04-16T10:33:39.360Z,74.50
2023-04-16T10:36:14.120Z,73.80
2023-04-16T10:38:49.802Z,75.80
2023-04-16T10:41:16.944Z,75.50
2023-04-16T10:43:46.125Z,74.30
2023-04-16T10:46:33.996Z,73.00
2023-04-16T10:49:02.912Z,72.30
2023-04-16T10:51:35.629Z,74.10
2023-04-16T10:54:21.482Z,75.30
2023-04-16T10:56:49.793Z,75.90
2023-04-16T10:59:21.551Z,76.60
2023-04-16T11:01:55.079Z,75.10
2023-04-16T11:04:22.323Z,75.20
2023-04-16T11:07:16.658Z,76.40
2023-04-16T11:09:48.003Z,74.60
2023-04-16T11:12:27.204Z,75.40
2023-04-16T11:14:58.800Z,74.60
2023-04-16T11:17:30.822Z,74.50
2023-04-16T11:19:57.712Z,73.00
2023-04-16T11:22:27.594Z,71.70
2023-04-16T11:24:57.616Z,72.20
2023-04-16T11:27:25.498Z,71.80
2023-04-16T11:30:04.472Z,72.30
2023-04-16T11:32:33.653Z,73.00
2023-04-16T11:35:05.854Z,74.90
2023-04-16T11:37:37.826Z,71.70
2023-04-16T11:40:09.605Z,69.80
2023-04-16T11:42:37.961Z,68.40
2023-04-16T11:45:05.166Z,69.40
2023-04-16T11:47:32.448Z,68.90
2023-04-16T11:50:16.538Z,70.40
2023-04-16T11:52:43.386Z,72.20
2023-04-16T11:55:10.292Z,72.10
2023-04-16T11:57:38.214Z,73.60
2023-04-16T12:00:15.141Z,74.60
2023-04-16T12:02:44.119Z,75.10
2023-04-16T12:05:32.303Z,75.10
2023-04-16T12:08:00.690Z,74.60
2023-04-16T12:10:30.118Z,75.30
2023-04-16T12:13:16.992Z,74.90
2023-04-16T12:15:48.510Z,74.60
2023-04-16T12:18:16.589Z,73.50
2023-04-16T12:20:44.767Z,74.20
2023-04-16T12:23:32.037Z,73.80
2023-04-16T12:26:02.711Z,74.10
2023-04-16T12:28:35.108Z,75.50
2023-04-16T12:31:03.311Z,75.90
2023-04-16T12:33:30.762Z,76.30
2023-04-16T12:35:57.697Z,75.50
2023-04-16T12:38:25.619Z,74.80
2023-04-16T12:40:56.583Z,73.40
2023-04-16T12:43:23.817Z,72.40
2023-04-16T12:45:50.716Z,73.10
2023-04-16T12:48:17.588Z,72.70
2023-04-16T12:50:47.531Z,71.60
2023-04-16T12:53:14.398Z,72.40
2023-04-16T12:55:56.334Z,73.40
2023-04-16T12:58:54.472Z,75.50
2023-04-16T13:01:21.601Z,74.90
2023-04-16T13:03:48.797Z,73.80
2023-04-16T13:06:16.892Z,69.50
2023-04-16T13:08:45.653Z,68.70
2023-04-16T13:11:12.811Z,68.00
2023-04-16T13:13:39.664Z,66.90
2023-04-16T13:16:08.433Z,68.20
2023-04-16T13:18:40.097Z,70.50
2023-04-16T13:21:07.133Z,70.00
2023-04-16T13:23:35.109Z,68.80
2023-04-16T13:26:01.949Z,67.50
2023-04-16T13:28:28.820Z,66.40
2023-04-16T13:30:55.732Z,66.30
2023-04-16T13:33:22.768Z,67.50
2023-04-16T13:35:50.393Z,65.60
2023-04-16T13:38:17.999Z,64.30
2023-04-16T13:40:44.958Z,65.40
2023-04-16T13:43:13.725Z,65.50
2023-04-16T13:45:40.888Z,67.00
2023-04-16T13:48:07.861Z,68.00
2023-04-16T13:50:35.133Z,68.50
2023-04-16T13:53:02.194Z,70.00
2023-04-16T13:55:31.198Z,71.30
2023-04-16T13:57:58.160Z,72.40
2023-04-16T14:00:26.419Z,73.00
2023-04-16T14:02:53.743Z,74.30
2023-04-16T14:05:20.781Z,74.60
2023-04-16T14:07:47.736Z,75.40
2023-04-16T14:10:37.060Z,76.10
2023-04-16T14:13:08.183Z,76.40
2023-04-16T14:15:34.949Z,75.50
2023-04-16T14:18:02.621Z,75.00
2023-04-16T14:20:29.370Z,75.60
2023-04-16T14:22:56.265Z,75.40
2023-04-16T14:25:24.572Z,75.40
2023-04-16T14:28:03.212Z,76.20
2023-04-16T14:30:30.233Z,75.40
2023-04-16T14:32:57.163Z,73.00
2023-04-16T14:35:24.063Z,72.50
2023-04-16T14:37:51.058Z,71.70
2023-04-16T14:40:17.971Z,71.20
2023-04-16T14:42:46.318Z,70.40
2023-04-16T14:45:13.068Z,69.10
2023-04-16T14:47:45.870Z,69.00
2023-04-16T14:50:13.639Z,70.40
2023-04-16T14:52:40.622Z,70.70
2023-04-16T14:55:07.710Z,72.00
2023-04-16T14:57:35.352Z,72.20
2023-04-16T15:00:10.527Z,73.50
2023-04-16T15:02:37.958Z,73.90
2023-04-16T15:05:05.277Z,74.30
2023-04-16T15:07:32.557Z,74.00
2023-04-16T15:09:59.418Z,74.40
2023-04-16T15:12:26.524Z,74.40
2023-04-16T15:14:53.377Z,74.30
2023-04-16T15:17:20.848Z,74.50
2023-04-16T15:19:47.789Z,73.50
2023-04-16T15:22:17.305Z,73.50
2023-04-16T15:24:44.261Z,72.40
2023-04-16T15:27:11.984Z,72.50
2023-04-16T15:29:38.816Z,71.80
2023-04-16T15:32:06.986Z,72.00
2023-04-16T15:34:33.862Z,73.20
2023-04-16T15:37:00.660Z,73.80
2023-04-16T15:39:31.099Z,73.60
2023-04-16T15:44:39.011Z,73.40
2023-04-16T15:47:07.843Z,72.70
2023-04-16T15:49:35.458Z,72.90
2023-04-16T15:52:02.493Z,71.90
2023-04-16T15:54:30.701Z,72.80
2023-04-16T15:56:58.667Z,73.70
2023-04-16T15:59:28.256Z,71.00
2023-04-16T16:01:55.091Z,71.40
2023-04-16T16:04:22.827Z,71.10
2023-04-16T16:06:50.749Z,67.30
2023-04-16T16:09:17.686Z,65.60
2023-04-16T16:11:44.477Z,65.00
2023-04-16T16:14:11.231Z,63.00
2023-04-16T16:16:39.396Z,63.10
2023-04-16T16:19:06.248Z,63.70
2023-04-16T16:21:33.077Z,61.10
2023-04-16T16:23:59.918Z,63.40
2023-04-16T16:26:27.109Z,66.90
2023-04-16T16:28:53.885Z,67.80
2023-04-16T16:31:21.030Z,66.30
2023-04-16T16:33:47.905Z,65.70
2023-04-16T16:36:14.758Z,66.40
2023-04-16T16:38:42.427Z,66.90
2023-04-16T16:41:09.312Z,67.10
2023-04-16T16:43:38.901Z,67.30
2023-04-16T16:46:07.390Z,68.70
2023-04-16T16:48:34.383Z,68.50
2023-04-16T16:51:01.412Z,69.20
2023-04-16T16:53:28.256Z,69.10
2023-04-16T16:55:55.085Z,68.40
2023-04-16T16:58:21.842Z,68.70
2023-04-16T17:00:48.729Z,69.00
2023-04-16T17:03:15.753Z,69.40
2023-04-16T17:05:42.596Z,70.30
2023-04-16T17:08:09.388Z,72.90
2023-04-16T17:10:36.272Z,73.40
2023-04-16T17:13:03.171Z,74.30
2023-04-16T17:15:30.074Z,75.70
2023-04-16T17:18:22.132Z,76.60
2023-04-16T17:20:48.867Z,77.80
2023-04-16T17:23:15.835Z,77.90
2023-04-16T17:25:42.723Z,78.50
2023-04-16T17:28:09.547Z,79.10
2023-04-16T17:30:36.627Z,79.40
2023-04-16T17:33:04.647Z,80.10
2023-04-16T17:35:31.767Z,80.50
2023-04-16T17:37:58.527Z,80.60
2023-04-16T17:40:25.665Z,81.10
2023-04-16T17:42:52.444Z,81.20
2023-04-16T17:45:19.291Z,81.50
2023-04-16T17:47:46.066Z,82.00
2023-04-16T17:50:12.945Z,82.80
2023-04-16T17:52:39.769Z,83.00
2023-04-16T17:55:07.700Z,82.90
2023-04-16T17:57:34.577Z,83.40
2023-04-16T18:00:01.420Z,83.90
2023-04-16T18:02:28.364Z,84.60
2023-04-16T18:04:55.509Z,85.00
2023-04-16T18:07:22.584Z,85.20
2023-04-16T18:09:49.358Z,85.90
2023-04-16T18:12:16.556Z,86.00
2023-04-16T18:14:44.732Z,86.20
2023-04-16T18:17:13.115Z,86.60
2023-04-16T18:19:56.697Z,86.80
2023-04-16T18:22:24.800Z,87.10
2023-04-16T18:24:53.010Z,86.80
2023-04-16T18:27:21.574Z,87.00
2023-04-16T18:30:32.075Z,87.50
2023-04-16T18:35:28.649Z,88.30
2023-04-16T18:37:55.437Z,88.30
2023-04-16T18:40:22.166Z,88.70
2023-04-16T18:42:48.946Z,88.80
2023-04-16T18:45:21.160Z,89.00
2023-04-16T18:47:50.144Z,89.30
2023-04-16T18:50:17.003Z,89.30
2023-04-16T18:52:43.770Z,89.00
2023-04-16T18:55:10.685Z,89.20
2023-04-16T18:57:37.513Z,89.00
2023-04-16T19:00:09.336Z,88.90
2023-04-16T19:02:36.225Z,88.90
2023-04-16T19:05:03.129Z,88.90
2023-04-16T19:07:29.986Z,88.70
2023-04-16T19:09:56.878Z,88.70
2023-04-16T19:12:23.823Z,88.80
2023-04-16T19:14:50.611Z,88.20
2023-04-16T19:17:17.340Z,88.30
2023-04-16T19:19:44.231Z,88.50
2023-04-16T19:22:11.200Z,88.30
2023-04-16T19:24:38.144Z,88.50
2023-04-16T19:27:04.952Z,88.40
2023-04-16T19:29:56.546Z,88.30
2023-04-16T19:32:24.194Z,88.10
2023-04-16T19:34:51.021Z,88.20
2023-04-16T19:37:17.763Z,88.20
2023-04-16T19:39:44.522Z,88.30
2023-04-16T19:42:11.335Z,88.60
2023-04-16T19:44:38.108Z,88.60
2023-04-16T19:47:06.435Z,88.90
2023-04-16T19:49:34.547Z,89.00
2023-04-16T19:52:01.604Z,89.10
2023-04-16T19:54:28.761Z,89.70
2023-04-16T19:56:55.491Z,89.90
2023-04-16T19:59:22.321Z,89.90
2023-04-16T20:01:51.670Z,90.20
2023-04-16T20:04:18.643Z,90.50
2023-04-16T20:06:45.470Z,90.40
2023-04-16T20:09:12.613Z,90.50
2023-04-16T20:11:39.650Z,90.60
2023-04-16T20:14:06.386Z,91.00
2023-04-16T20:16:33.751Z,91.40
2023-04-16T20:19:03.652Z,91.40
2023-04-16T20:21:34.125Z,91.80
2023-04-16T20:24:00.834Z,91.80
2023-04-16T20:26:33.651Z,91.90
2023-04-16T20:29:00.877Z,92.50
2023-04-16T20:31:27.743Z,92.40
2023-04-16T20:33:54.702Z,93.10
2023-04-16T20:36:21.767Z,93.20
2023-04-16T20:38:48.603Z,93.10
2023-04-16T20:41:21.141Z,93.40
2023-04-16T20:43:50.212Z,93.40
2023-04-16T20:46:17.778Z,93.20
2023-04-16T20:48:44.778Z,93.30
2023-04-16T20:51:11.611Z,93.20
2023-04-16T20:53:38.417Z,93.00
2023-04-16T20:56:06.627Z,93.40
2023-04-16T20:58:33.476Z,93.70
2023-04-16T21:01:00.713Z,93.50
2023-04-16T21:03:27.669Z,93.70
2023-04-16T21:05:55.816Z,93.50
2023-04-16T21:08:23.472Z,93.60
2023-04-16T21:10:51.184Z,93.40
2023-04-16T21:13:18.705Z,93.50
2023-04-16T21:15:45.963Z,93.60
2023-04-16T21:18:13.302Z,93.50
2023-04-16T21:20:40.456Z,93.80
2023-04-16T21:23:07.749Z,93.60
2023-04-16T21:25:34.560Z,93.90
2023-04-16T21:28:01.335Z,94.00
2023-04-16T21:30:33.545Z,94.20
2023-04-16T21:33:03.324Z,94.20
2023-04-16T21:35:33.653Z,94.50
2023-04-16T21:38:41.131Z,94.90
2023-04-16T21:41:40.898Z,95.10
2023-04-16T21:44:07.721Z,95.10
2023-04-16T21:46:37.254Z,95.20
2023-04-16T21:49:04.202Z,95.60
2023-04-16T21:51:31.218Z,95.40
2023-04-16T21:53:58.372Z,95.40
2023-04-16T21:56:25.965Z,95.30
2023-04-16T21:58:52.824Z,95.40
2023-04-16T22:01:19.598Z,95.50
2023-04-16T22:03:50.546Z,95.60
2023-04-16T22:06:17.900Z,95.70
2023-04-16T22:08:44.674Z,95.80
2023-04-16T22:11:11.873Z,95.70
2023-04-16T22:13:42.108Z,95.90
2023-04-16T22:16:11.504Z,95.80
2023-04-16T22:18:38.701Z,95.80
2023-04-16T22:21:05.552Z,96.00
2023-04-16T22:23:32.534Z,96.00
2023-04-16T22:25:59.269Z,96.20
2023-04-16T22:28:26.319Z,96.20
2023-04-16T22:30:53.245Z,96.30
2023-04-16T22:33:20.258Z,96.50
2023-04-16T22:35:47.158Z,96.50
2023-04-16T22:38:14.044Z,96.60
2023-04-16T22:40:41.105Z,96.50
2023-04-16T22:43:07.938Z,96.50
2023-04-16T22:45:35.919Z,96.70
2023-04-16T22:48:02.915Z,96.60
2023-04-16T22:50:31.196Z,96.40
2023-04-16T22:52:58.331Z,96.50
2023-04-16T22:55:25.535Z,96.60
2023-04-16T22:57:52.487Z,96.70
2023-04-16T23:00:19.416Z,96.80
2023-04-16T23:02:46.504Z,96.70
2023-04-16T23:05:13.457Z,96.80
2023-04-16T23:07:40.559Z,96.70
2023-04-16T23:10:08.662Z,96.70
2023-04-16T23:12:38.807Z,96.70
2023-04-16T23:15:06.618Z,96.90
2023-04-16T23:17:35.111Z,97.00
2023-04-16T23:20:02.235Z,96.90
2023-04-16T23:22:29.117Z,97.20
2023-04-16T23:24:55.987Z,97.20
2023-04-16T23:27:22.830Z,97.10
2023-04-16T23:29:49.691Z,97.20
2023-04-16T23:32:16.648Z,97.40
2023-04-16T23:34:43.529Z,97.30
2023-04-16T23:37:10.339Z,97.40
2023-04-16T23:39:37.209Z,97.40
2023-04-16T23:42:04.014Z,97.50
2023-04-16T23:44:31.202Z,97.70
2023-04-16T23:46:58.185Z,97.60
2023-04-16T23:49:25.623Z,97.50
2023-04-16T23:51:52.472Z,97.60
2023-04-16T23:54:19.446Z,97.70
2023-04-16T23:56:46.171Z,97.50
2023-04-16T23:59:13.121Z,97.80
